DCU weather

Pryor Field Regional Airport
Decatur, Alabama, United States

Public forecast

Using degrees Fahrenheit for public forecast. Weather courtesy of forecast.io.

Current aviation weather report (METAR) for Pryor Field Regional Airport

Retrieved 2020/03/30 22:53 UTC (18 minutes ago):

KDCU 302253Z AUTO 20006KT 10SM CLR 17/11 A3010 RMK AO2 SLP188 T01670106

Closest aviation forecast (TAF) to Pryor Field Regional Airport

Closest forecast is Huntsville International Carl T Jones Field, 8.5 nm (15.7 km) E. Retrieved 2020/03/30 18:22 UTC (5 hours ago):

TAF KHSV 301720Z 3018/3118 36003KT P6SM BKN200 FM310300 VRB04KT P6SM OVC035 PROB30 3103/3106 4SM -RA OVC025 FM310600 05005KT P6SM -RA OVC020 FM310900 07006KT 6SM RA SCT008 OVC015 FM311300 07007KT 6SM RA OVC008